Flight Track Log - Related Links

Times and Time Zones

All times are in EDT time to prevent confusion due to time zone crossing. See the N1989D flight status page for this flight to view local times or setup timezone preferences in your user account.

Time Position Orientation Groundspeed Altitude Reporting Facility
EDT Latitude Longitude Course Direction KTS MPH feet Rate Location/Type
Mon 03:36:51 PM 40.4667 -104.6333 74° East 171 197 5,600  Level Denver TRACON
Mon 03:37:45 PM 40.4833 -104.5667 72° East 247 284 8,600 3,400 Climbing Denver TRACON
Mon 03:38:51 PM 40.4122 -104.5211 154° Southeast 267 307 12,400 3,188 Climbing Denver Center
Mon 03:39:53 PM 40.3400 -104.4744 154° Southeast 286 329 15,400 2,855 Climbing Denver Center
Mon 03:40:55 PM 40.2617 -104.4558 170° South 286 329 18,300 2,390 Climbing Denver Center
Mon 03:41:56 PM 40.1700 -104.4283 167° South 319 367 20,300 1,951 Climbing Denver Center
Mon 03:42:00 PM 39.8609 -104.3842 74° East  Level FlightAware Approximate
Mon 03:42:58 PM 40.0972 -104.3397 137° Southeast 367 422 22,300  Level Denver Center
Mon 03:44:00 PM 40.0581 -104.1933 109° East 402 463 24,400 1,694 Climbing Denver Center
Mon 03:45:02 PM 40.0239 -104.0408 106° East 432 497 25,800 1,415 Climbing Denver Center
Mon 03:46:03 PM 40.0058 -103.8764 98° East 460 529 27,300 1,122 Climbing Denver Center
Mon 03:47:05 PM 40.0333 -103.7086 78° East 462 532 28,100 677 Climbing Denver Center
Mon 03:48:07 PM 40.0761 -103.5328 72° East 504 580 28,700 1,016 Climbing Denver Center
Mon 03:49:09 PM 40.1183 -103.3481 73° East 522 601 30,200 1,610 Climbing Denver Center
Mon 03:50:10 PM 40.1583 -103.1661 74° East 516 594 32,000 1,610 Climbing Denver Center
Mon 03:51:12 PM 40.1853 -102.9800 79° East 514 592 33,500 1,548 Climbing Denver Center
Mon 03:52:14 PM 40.2094 -102.7983 80° East 504 580 35,200 1,268 Climbing Denver Center
Mon 03:53:15 PM 40.2389 -102.5906 79° East 498 573 36,100 683 Climbing Denver Center
Mon 03:54:17 PM 40.2625 -102.4167 80° East 506 582 36,600 435 Climbing Denver Center
Mon 03:55:19 PM 40.2869 -102.2397 80° East 515 593 37,000 194 Climbing Denver Center
Mon 03:56:21 PM 40.3142 -102.0292 80° East 526 605 37,000  Level Denver Center
Mon 03:57:22 PM 40.3381 -101.8447 80° East 535 616 37,000  Level Denver Center
Mon 03:58:24 PM 40.3661 -101.6292 80° East 539 620 37,000 242 Level Denver Center
Mon 03:59:26 PM 40.3892 -101.4464 81° East 535 616 37,500 780 Climbing Denver Center
Mon 04:00:27 PM 40.4150 -101.2417 81° East 513 590 38,600 732 Climbing Denver Center
Mon 04:01:29 PM 40.4367 -101.0717 80° East 499 574 39,000 195 Climbing Denver Center
Mon 04:02:30 PM 40.4542 -100.9289 81° East 499 574 39,000  Level Denver Center
Mon 04:03:32 PM 40.4658 -100.6992 86° East 498 573 39,000  Level Denver Center
Mon 04:04:34 PM 40.4736 -100.4961 87° East 502 578 39,000  Level Denver Center
Mon 04:05:36 PM 40.4819 -100.3228 86° East 501 577 39,000  Level Denver Center
Mon 04:06:37 PM 40.4889 -100.1467 87° East 507 583 39,000  Level Denver Center
Mon 04:07:51 PM 40.4978 -99.9425 87° East 505 581 39,000  Level Denver Center
Mon 04:08:53 PM 40.5061 -99.7169 87° East 505 581 39,000  Level Denver Center
Mon 04:09:55 PM 40.5133 -99.5339 87° East 503 579 39,000 339 Level Denver Center
Mon 04:10:57 PM 40.5197 -99.3514 87° East 502 578 39,700 634 Climbing Denver Center
Mon 04:11:58 PM 40.5264 -99.1744 87° East 491 565 40,300 615 Climbing Denver Center
Mon 04:12:15 PM 40.5283 -99.1056 88° East 489 563 40,500 538 Climbing Minneapolis Center
Mon 04:13:16 PM 40.5347 -98.9322 87° East 481 554 41,000 244 Climbing Minneapolis Center
Mon 04:14:18 PM 40.5392 -98.7572 88° East 481 554 41,000  Level Minneapolis Center
Mon 04:15:19 PM 40.5447 -98.5819 88° East 483 556 41,000  Level Minneapolis Center
Mon 04:16:21 PM 40.5492 -98.4025 88° East 490 564 41,000  Level Minneapolis Center
Mon 04:17:22 PM 40.5544 -98.2214 88° East 496 571 41,000  Level Minneapolis Center
Mon 04:18:24 PM 40.5583 -98.0022 89° East 501 577 41,000  Level Minneapolis Center
Mon 04:19:25 PM 40.5631 -97.8186 88° East 503 579 41,000  Level Minneapolis Center
Mon 04:20:27 PM 40.5669 -97.6350 88° East 504 580 41,000  Level Minneapolis Center
Mon 04:21:28 PM 40.5700 -97.4514 89° East 503 579 41,000  Level Minneapolis Center
Mon 04:22:30 PM 40.5733 -97.2822 88° East 505 581 41,000  Level Minneapolis Center
Mon 04:23:32 PM 40.5781 -97.0625 88° East 504 580 41,000  Level Minneapolis Center
Mon 04:24:33 PM 40.5800 -96.8789 89° East 505 581 41,000  Level Minneapolis Center
Mon 04:25:35 PM 40.5822 -96.6975 89° East 501 577 41,000  Level Minneapolis Center
Mon 04:26:36 PM 40.5850 -96.5150 89° East 502 578 41,000  Level Minneapolis Center
Mon 04:27:38 PM 40.5864 -96.3342 89° East 500 575 41,000  Level Minneapolis Center
Mon 04:28:39 PM 40.5886 -96.1531 89° East 499 574 41,000  Level Minneapolis Center
Mon 04:29:41 PM 40.5900 -95.9728 89° East 496 571 41,000  Level Minneapolis Center
Mon 04:30:42 PM 40.5908 -95.7542 90° East 500 575 41,000  Level Minneapolis Center
Mon 04:31:44 PM 40.5925 -95.5722 89° East 502 578 41,000  Level Minneapolis Center
Mon 04:32:45 PM 40.5922 -95.3917 90° East 499 574 41,000  Level Minneapolis Center
Mon 04:33:47 PM 40.5911 -95.2125 90° East 495 570 41,000  Level Minneapolis Center
Mon 04:34:49 PM 40.5919 -95.0322 90° East 494 568 41,000  Level Minneapolis Center
Mon 04:35:50 PM 40.5925 -94.8533 90° East 493 567 41,000  Level Minneapolis Center
Mon 04:36:52 PM 40.5908 -94.6742 91° East 492 566 41,000  Level Minneapolis Center
Mon 04:37:53 PM 40.5897 -94.4756 90° East 492 566 41,000  Level Minneapolis Center
Mon 04:38:55 PM 40.5883 -94.2975 91° East 490 564 41,000  Level Minneapolis Center
Mon 04:39:57 PM 40.5853 -94.1200 91° East 491 565 41,000  Level Minneapolis Center
Mon 04:40:58 PM 40.5842 -93.9411 90° East 491 565 41,000  Level Minneapolis Center
Mon 04:42:00 PM 40.5814 -93.7253 91° East 494 568 41,000  Level Minneapolis Center
Mon 04:43:02 PM 40.5789 -93.5458 91° East 495 570 41,000  Level Minneapolis Center
Mon 04:44:03 PM 40.5758 -93.3653 91° East 496 571 41,000  Level Minneapolis Center
Mon 04:44:34 PM 40.5731 -93.2931 93° East 495 570 41,000  Level Kansas City Center
Mon 04:45:38 PM 40.5692 -93.0778 91° East 494 568 41,000  Level Kansas City Center
Mon 04:46:42 PM 40.5658 -92.8956 91° East 489 563 41,000  Level Kansas City Center
Mon 04:47:42 PM 40.5622 -92.7256 92° East 486 559 41,000  Level Kansas City Center
Mon 04:48:44 PM 40.5581 -92.5447 92° East 487 560 41,000  Level Kansas City Center
Mon 04:49:45 PM 40.5544 -92.3678 91° East 486 559 41,000  Level Kansas City Center
Mon 04:50:49 PM 40.5500 -92.1889 92° East 483 556 41,000  Level Kansas City Center
Mon 04:51:50 PM 40.5444 -91.9783 92° East 481 554 41,000  Level Kansas City Center
Mon 04:52:53 PM 40.5389 -91.8036 92° East 482 555 41,000  Level Kansas City Center
Mon 04:53:54 PM 40.5328 -91.6297 93° East 480 552 41,000  Level Kansas City Center
Mon 04:54:37 PM 40.5300 -91.4906 91° East 480 552 41,000  Level Chicago Center
Mon 04:55:39 PM 40.5236 -91.3183 93° East 478 550 41,000  Level Chicago Center
Mon 04:56:41 PM 40.5175 -91.1439 93° East 478 550 41,000  Level Chicago Center
Mon 04:57:42 PM 40.5108 -90.9697 93° East 479 551 41,000  Level Chicago Center
Mon 04:58:44 PM 40.5050 -90.7953 92° East 478 550 41,000  Level Chicago Center
Mon 04:59:46 PM 40.4986 -90.6214 93° East 478 550 41,000  Level Chicago Center
Mon 05:00:48 PM 40.4894 -90.4122 93° East 480 552 41,000  Level Chicago Center
Mon 05:01:50 PM 40.4806 -90.2397 94° East 480 552 41,000  Level Chicago Center
Mon 05:02:52 PM 40.4717 -90.0658 94° East 482 555 41,000  Level Chicago Center
Mon 05:03:54 PM 40.4631 -89.8928 94° East 481 554 41,000  Level Chicago Center
Mon 05:04:56 PM 40.4561 -89.7183 93° East 481 554 41,000  Level Chicago Center
Mon 05:05:58 PM 40.4475 -89.5128 93° East 481 554 41,000  Level Chicago Center
Mon 05:07:00 PM 40.4378 -89.3386 94° East 483 556 41,000  Level Chicago Center
Mon 05:08:02 PM 40.4300 -89.1647 93° East 481 554 41,000  Level Chicago Center
Mon 05:09:04 PM 40.4214 -88.9917 94° East 479 551 41,000  Level Chicago Center
Mon 05:10:06 PM 40.4094 -88.8208 95° East 475 547 41,000  Level Chicago Center
Mon 05:11:08 PM 40.3983 -88.6139 94° East 474 545 41,000  Level Chicago Center
Mon 05:12:10 PM 40.3903 -88.4469 94° East 470 541 41,000  Level Chicago Center
Mon 05:13:13 PM 40.3794 -88.2789 95° East 467 537 41,000  Level Chicago Center
Mon 05:14:15 PM 40.3692 -88.1119 95° East 465 535 41,000  Level Chicago Center
Mon 05:15:17 PM 40.3569 -87.9122 95° East 464 534 41,000  Level Chicago Center
Mon 05:16:19 PM 40.3469 -87.7458 94° East 463 533 41,000  Level Chicago Center
Mon 05:17:21 PM 40.3358 -87.5808 95° East 461 531 41,000  Level Chicago Center
Mon 05:18:23 PM 40.3247 -87.4153 95° East 461 531 41,000  Level Chicago Center
Mon 05:19:25 PM 40.3133 -87.2486 95° East 463 533 41,000  Level Chicago Center
Mon 05:20:27 PM 40.2997 -87.0517 95° East 459 528 41,000  Level Chicago Center
Mon 05:21:29 PM 40.2886 -86.8853 95° East 463 533 41,000  Level Chicago Center
Mon 05:22:31 PM 40.2753 -86.7250 96° East 461 531 41,000  Level Chicago Center
Mon 05:23:33 PM 40.2633 -86.5597 95° East 461 531 41,000  Level Chicago Center
Mon 05:24:35 PM 40.2503 -86.3950 96° East 458 527 41,000  Level Chicago Center
Mon 05:25:38 PM 40.2342 -86.1947 96° East 459 528 41,000  Level Chicago Center
Mon 05:26:40 PM 40.2200 -86.0264 96° East 467 537 41,000  Level Chicago Center
Mon 05:27:42 PM 40.2067 -85.8567 96° East 469 540 41,000  Level Chicago Center
Mon 05:28:44 PM 40.1928 -85.6883 96° East 470 541 41,000  Level Chicago Center
Mon 05:29:46 PM 40.1794 -85.5208 96° East 468 539 41,000  Level Chicago Center
Mon 05:30:42 PM 40.1631 -85.3408 97° East 466 536 41,000  Level Indianapolis Center
Mon 05:31:44 PM 40.1483 -85.1694 96° East 470 541 41,000  Level Indianapolis Center
Mon 05:32:46 PM 40.1333 -84.9994 97° East 469 540 41,000  Level Indianapolis Center
Mon 05:33:47 PM 40.1194 -84.8294 96° East 468 539 41,000  Level Indianapolis Center
Mon 05:34:49 PM 40.1019 -84.6592 98° East 468 539 41,000  Level Indianapolis Center
Mon 05:35:51 PM 40.0869 -84.4889 97° East 468 539 41,000  Level Indianapolis Center
Mon 05:37:55 PM 40.0542 -84.1481 97° East 470 541 41,000  Level Indianapolis Center
Mon 05:38:57 PM 40.0378 -83.9789 97° East 467 537 41,000  Level Indianapolis Center
Mon 05:39:58 PM 40.0186 -83.7808 97° East 464 534 41,000  Level Indianapolis Center
Mon 05:41:00 PM 40.0014 -83.6089 97° East 470 541 41,000  Level Indianapolis Center
Mon 05:42:02 PM 39.9836 -83.4358 98° East 470 541 41,000  Level Indianapolis Center
Mon 05:43:04 PM 39.9653 -83.2608 98° East 474 545 41,000  Level Indianapolis Center
Mon 05:44:06 PM 39.9472 -83.0889 98° East 473 544 41,000  Level Indianapolis Center
Mon 05:45:08 PM 39.9289 -82.9164 98° East 475 547 41,000  Level Indianapolis Center
Mon 05:46:10 PM 39.9100 -82.7444 98° East 474 545 41,000  Level Indianapolis Center
Mon 05:47:11 PM 39.8903 -82.5725 98° East 477 549 41,000  Level Indianapolis Center
Mon 05:48:13 PM 39.8722 -82.4006 98° East 475 547 41,000 -145 Level Indianapolis Center
Mon 05:49:15 PM 39.8525 -82.2283 98° East 476 548 40,700 -677 Descending Indianapolis Center
Mon 05:50:17 PM 39.8325 -82.0544 98° East 482 555 39,600 -1,113 Descending Indianapolis Center
Mon 05:51:19 PM 39.8089 -81.8544 99° East 477 549 38,400 -1,065 Descending Indianapolis Center
Mon 05:52:21 PM 39.7892 -81.6839 99° East 474 545 37,400 -737 Descending Indianapolis Center
Mon 05:53:13 PM 39.7775 -81.5528 97° East 467 537 37,000 -214 Descending Cleveland Center
Mon 05:54:13 PM 39.7517 -81.3606 100° East 477 549 37,000  Level Cleveland Center
Mon 05:55:13 PM 39.7319 -81.1931 99° East 477 549 37,000  Level Cleveland Center
Mon 05:56:13 PM 39.7097 -81.0203 99° East 482 555 37,000  Level Cleveland Center
Mon 05:57:13 PM 39.6894 -80.8475 99° East 487 560 37,000  Level Cleveland Center
Mon 05:58:13 PM 39.6669 -80.6775 100° East 487 560 37,000  Level Cleveland Center
Mon 05:59:13 PM 39.6461 -80.5022 99° East 487 560 37,000 -400 Level Cleveland Center
Mon 06:00:13 PM 39.6228 -80.3297 100° East 487 560 36,200 -1,000 Descending Cleveland Center
Mon 06:01:13 PM 39.6017 -80.1600 99° East 487 560 35,000 -1,550 Descending Cleveland Center
Mon 06:02:13 PM 39.5778 -79.9906 100° East 482 555 33,100 -2,963 Descending Cleveland Center
Mon 06:03:55 PM 39.5364 -79.7275 101° East 467 537 27,000 -2,074 Descending Washington Center
Mon 06:04:55 PM 39.5064 -79.5697 104° East 456 525 27,500  Climbing Washington Center
Mon 06:05:55 PM 39.4783 -79.4069 103° East 456 525 27,000 -1,350 Descending Washington Center
Mon 06:06:55 PM 39.4461 -79.2358 104° East 456 525 24,800 -2,100 Descending Washington Center
Mon 06:07:55 PM 39.4211 -79.0922 103° East 434 499 22,800 -2,200 Descending Washington Center
Mon 06:08:55 PM 39.3939 -78.9511 104° East 417 480 20,400 -2,100 Descending Washington Center
Mon 06:09:55 PM 39.3706 -78.8186 103° East 393 452 18,600 -1,600 Descending Washington Center
Mon 06:10:55 PM 39.3467 -78.6886 103° East 376 433 17,200 -1,550 Descending Washington Center
Mon 06:11:55 PM 39.3228 -78.5617 104° East 369 425 15,500 -1,700 Descending Washington Center
Mon 06:12:55 PM 39.3028 -78.4400 102° East 358 412 13,800 -1,600 Descending Washington Center
Mon 06:13:55 PM 39.2700 -78.3314 111° Southeast 341 392 12,300 -1,500 Descending Washington Center
Mon 06:14:55 PM 39.2239 -78.2467 125° Southeast 309 356 10,800 -1,350 Descending Washington Center
Mon 06:15:55 PM 39.1778 -78.1619 125° Southeast 294 338 9,600 -1,200 Descending Washington Center
Mon 06:16:55 PM 39.1358 -78.0775 123° Southeast 283 326 8,400 -1,250 Descending Washington Center
Mon 06:17:55 PM 39.0936 -77.9986 125° Southeast 278 320 7,100 -1,150 Descending Washington Center
Mon 06:18:55 PM 39.0514 -77.9222 125° Southeast 267 307 6,100 -500 Descending Washington Center
Mon 06:19:55 PM 39.0172 -77.8544 123° Southeast 267 307 6,100  Level Washington Center
Mon 06:20:55 PM 38.9728 -77.7731 125° Southeast 267 307 6,100 -31 Level Washington Center
Mon 06:23:06 PM 38.9167 -77.6000 113° Southeast 261 300 6,000 -31 Descending Potomac TRACON
Mon 06:24:06 PM 38.8500 -77.5667 159° South 215 247 6,000 -857 Level Potomac TRACON
Mon 06:25:12 PM 38.7833 -77.5833 191° South 226 260 4,200 -952 Descending Potomac TRACON
Mon 06:26:12 PM 38.7167 -77.5667 169° South 193 222 4,000 -429 Descending Potomac TRACON
Mon 06:27:18 PM 38.7167 -77.5167 90° East 170 196 3,300 -472 Descending Potomac TRACON
Mon 06:28:19 PM 38.7333 -77.4667 67° East 179 206 3,000 -149 Descending Potomac TRACON
Mon 06:29:19 PM 38.7833 -77.4667 360° North 177 204 3,000 -350 Level Potomac TRACON
Mon 06:30:19 PM 38.8333 -77.4667 360° North 177 204 2,300 -750 Descending Potomac TRACON
Mon 06:31:19 PM 38.8833 -77.4667 360° North 144 166 1,500 -750 Descending Potomac TRACON
Mon 06:32:19 PM 38.9167 -77.4667 360° North 133 153 800 -700 Descending Potomac TRACON

Login

Don't have an account? Register now (free) for customized features, flight alerts, and more!